Time;durP1;ratioP1;P1;durP2;ratioP2;P2;SDS_P1;SDS_P2;PMS_P1;PMS_P2;Temp;Humidity;BMP_temperature;BMP_pressure;BME280_temperature;BME280_humidity;BME280_pressure;Samples;Min_cycle;Max_cycle;Signal;HPM_P1;HPM_P2
2021/05/21 00:01:13;;;;;;;1.30;1.20;;;;;;;12.64;100.00;100798.48;1722938;83;20946;-73
2021/05/21 00:03:41;;;;;;;1.55;1.27;;;;;;;12.64;100.00;100791.97;1722938;83;21181;-75
2021/05/21 00:06:09;;;;;;;1.57;1.47;;;;;;;12.64;100.00;100791.97;1722683;83;21626;-73
2021/05/21 00:08:36;;;;;;;2.17;1.57;;;;;;;12.64;100.00;100802.38;1722972;83;21001;-72
2021/05/21 00:11:03;;;;;;;1.67;1.57;;;;;;;12.64;100.00;100798.48;1722751;83;21040;-72
2021/05/21 00:13:30;;;;;;;1.87;1.77;;;;;;;12.64;100.00;100797.17;1722691;83;20898;-70
2021/05/21 00:15:57;;;;;;;2.37;1.70;;;;;;;12.63;100.00;100795.53;1722786;83;21054;-71
2021/05/21 00:18:25;;;;;;;1.72;1.62;;;;;;;12.65;100.00;100800.15;1722445;82;21681;-72
2021/05/21 00:20:51;;;;;;;1.60;1.50;;;;;;;12.63;100.00;100795.53;1722655;83;20918;-71
2021/05/21 00:23:19;;;;;;;2.95;1.80;;;;;;;12.63;100.00;100797.67;1722632;83;21045;-70
2021/05/21 00:25:46;;;;;;;4.15;1.80;;;;;;;12.61;100.00;100795.63;1722814;83;21029;-71
2021/05/21 00:28:13;;;;;;;1.85;1.55;;;;;;;12.60;100.00;100799.66;1722555;83;21118;-71
2021/05/21 00:30:40;;;;;;;4.03;2.20;;;;;;;12.60;100.00;100804.38;1722944;83;21057;-72
2021/05/21 00:33:07;;;;;;;3.45;1.90;;;;;;;12.60;100.00;100801.77;1722821;83;21574;-72
2021/05/21 00:35:35;;;;;;;3.60;1.70;;;;;;;12.60;100.00;100801.77;1722816;83;21025;-71
2021/05/21 00:38:03;;;;;;;2.08;1.70;;;;;;;12.62;100.00;100812.92;1722720;83;20914;-72
2021/05/21 00:40:30;;;;;;;2.05;1.80;;;;;;;12.62;100.00;100805.11;1722814;83;21072;-72
2021/05/21 00:42:57;;;;;;;4.10;1.85;;;;;;;12.62;100.00;100814.23;1722624;83;21116;-72
2021/05/21 00:45:24;;;;;;;2.87;1.67;;;;;;;12.62;100.00;100807.72;1722845;83;21610;-71
2021/05/21 00:47:52;;;;;;;1.80;1.47;;;;;;;12.64;100.00;100813.63;1722707;83;21123;-71
2021/05/21 00:50:21;;;;;;;1.80;1.70;;;;;;;12.64;100.00;100811.49;1722683;83;21601;-71
2021/05/21 00:52:49;;;;;;;2.05;1.85;;;;;;;12.67;100.00;100817.31;1722418;83;21855;-72
2021/05/21 00:55:16;;;;;;;2.22;1.90;;;;;;;12.67;100.00;100809.50;1722716;83;21140;-72
2021/05/21 00:57:43;;;;;;;2.98;1.55;;;;;;;12.66;100.00;100807.86;1722885;83;20985;-73
2021/05/21 01:00:11;;;;;;;2.27;1.98;;;;;;;12.66;100.00;100808.33;1722766;83;20938;-72
2021/05/21 01:02:38;;;;;;;1.98;1.60;;;;;;;12.64;100.00;100803.69;1722944;83;20969;-74
2021/05/21 01:05:07;;;;;;;1.80;1.70;;;;;;;12.63;100.00;100800.73;1722999;83;21099;-72
2021/05/21 01:07:35;;;;;;;1.80;1.70;;;;;;;12.62;100.00;100801.20;1725695;83;21016;-75
2021/05/21 01:10:03;;;;;;;6.55;2.15;;;;;;;12.60;100.00;100797.86;1725464;83;20914;-74
2021/05/21 01:12:31;;;;;;;1.77;1.57;;;;;;;12.59;100.00;100805.34;1725000;83;20961;-74
2021/05/21 01:14:58;;;;;;;3.52;2.27;;;;;;;12.58;100.00;100805.43;1726679;83;21006;-76
2021/05/21 01:17:26;;;;;;;4.55;2.02;;;;;;;12.58;100.00;100802.83;1725081;83;21551;-73
2021/05/21 01:19:54;;;;;;;2.10;1.90;;;;;;;12.58;100.00;100802.83;1723322;83;20910;-73
2021/05/21 01:22:21;;;;;;;4.78;2.20;;;;;;;12.55;100.00;100805.19;1722783;83;20945;-72
2021/05/21 01:24:49;;;;;;;2.52;2.00;;;;;;;12.54;100.00;100800.11;1722730;83;21040;-73
2021/05/21 01:27:18;;;;;;;2.55;2.10;;;;;;;12.55;100.00;100800.45;1722497;83;21593;-72
2021/05/21 01:29:45;;;;;;;3.05;2.75;;;;;;;12.54;100.00;100804.02;1722706;83;21096;-74
2021/05/21 01:32:12;;;;;;;4.10;2.80;;;;;;;12.52;100.00;100806.71;1722726;83;20934;-76
2021/05/21 01:34:39;;;;;;;5.47;2.83;;;;;;;12.49;100.00;100804.80;1722860;83;21328;-76
2021/05/21 01:37:19;;;;;;;2.83;2.62;;;;;;;12.46;100.00;100804.55;1722625;83;20997;-81
2021/05/21 01:39:49;;;;;;;3.22;2.40;;;;;;;12.44;100.00;100808.20;1722912;83;21093;-73
2021/05/21 01:42:17;;;;;;;2.67;2.47;;;;;;;12.41;100.00;100808.42;1722748;83;21102;-73
2021/05/21 01:44:44;;;;;;;3.52;2.87;;;;;;;12.38;100.00;100809.45;1722662;83;21025;-75
2021/05/21 01:47:12;;;;;;;3.42;2.70;;;;;;;12.36;100.00;100816.55;1722704;83;21736;-74
2021/05/21 01:49:40;;;;;;;3.22;2.37;;;;;;;12.34;100.00;100813.70;1722911;83;21033;-76
2021/05/21 01:52:08;;;;;;;2.77;2.52;;;;;;;12.31;100.00;100816.05;1722560;83;21645;-73
2021/05/21 01:54:36;;;;;;;5.22;2.20;;;;;;;12.27;100.00;100811.16;1722895;83;21538;-75
2021/05/21 01:57:05;;;;;;;4.85;2.90;;;;;;;12.25;100.00;100811.75;1722754;83;20882;-73
2021/05/21 01:59:33;;;;;;;2.87;2.33;;;;;;;12.20;100.00;100821.17;1722766;83;20914;-72
2021/05/21 02:02:01;;;;;;;2.62;2.35;;;;;;;12.17;100.00;100822.22;1722780;83;20921;-76
2021/05/21 02:04:37;;;;;;;2.30;2.10;;;;;;;12.16;100.00;100828.81;1722885;83;20914;-75
2021/05/21 02:07:05;;;;;;;3.55;2.33;;;;;;;12.15;100.00;100831.08;1722690;83;21820;-77
2021/05/21 02:09:59;;;;;;;1.98;1.82;;;;;;;12.14;100.00;100832.00;1722810;83;20870;-70
2021/05/21 02:12:32;;;;;;;2.77;2.40;;;;;;;12.11;100.00;100833.05;1722721;83;21017;-79
2021/05/21 02:15:02;;;;;;;2.12;1.92;;;;;;;12.08;100.00;100839.78;1722623;83;21586;-70
2021/05/21 02:17:29;;;;;;;4.08;2.50;;;;;;;12.05;100.00;100836.09;1722773;83;21025;-75
2021/05/21 02:19:59;;;;;;;3.17;2.72;;;;;;;12.04;100.00;100829.21;1722592;83;21591;-75
2021/05/21 02:22:25;;;;;;;4.25;2.60;;;;;;;12.03;100.00;100829.34;1722576;83;21025;-71
2021/05/21 02:24:55;;;;;;;3.27;2.58;;;;;;;12.03;100.00;100836.64;1722747;83;21483;-75
2021/05/21 02:27:24;;;;;;;3.02;2.47;;;;;;;12.01;100.00;100837.69;1722740;83;20966;-72
2021/05/21 02:29:51;;;;;;;5.33;2.65;;;;;;;12.00;100.00;100836.02;1722589;83;21495;-77
2021/05/21 02:32:18;;;;;;;6.83;2.72;;;;;;;12.02;100.00;100840.67;1722579;83;21122;-73
2021/05/21 02:34:45;;;;;;;3.05;2.85;;;;;;;12.03;100.00;100844.94;1722750;83;21641;-80
2021/05/21 02:37:15;;;;;;;3.10;2.80;;;;;;;12.03;100.00;100844.45;1722674;83;21080;-75
2021/05/21 02:39:42;;;;;;;3.35;2.90;;;;;;;12.02;100.00;100838.91;1722646;83;21662;-76
2021/05/21 02:42:10;;;;;;;3.15;2.85;;;;;;;12.04;100.00;100843.98;1722632;83;20949;-80
2021/05/21 02:44:38;;;;;;;4.50;3.05;;;;;;;12.04;100.00;100846.58;1722665;83;21540;-75
2021/05/21 02:47:06;;;;;;;3.62;3.33;;;;;;;12.04;100.00;100850.48;1722766;83;21606;-77
2021/05/21 02:49:34;;;;;;;3.20;2.90;;;;;;;12.04;100.00;100853.09;1722773;83;20878;-70
2021/05/21 02:52:03;;;;;;;3.25;2.83;;;;;;;12.06;100.00;100859.84;1722636;83;20950;-72
2021/05/21 02:54:31;;;;;;;3.40;3.10;;;;;;;12.07;100.00;100856.77;1722837;83;21511;-71
2021/05/21 02:56:57;;;;;;;3.37;3.08;;;;;;;12.07;100.00;100862.81;1722817;83;21652;-71
2021/05/21 02:59:24;;;;;;;3.33;3.02;;;;;;;12.09;100.00;100862.23;1722903;83;21052;-69
2021/05/21 03:01:51;;;;;;;4.03;2.90;;;;;;;12.11;100.00;100864.27;1722856;83;20993;-71
2021/05/21 03:04:18;;;;;;;3.12;2.80;;;;;;;12.13;100.00;100865.45;1723077;83;21033;-76
2021/05/21 03:06:47;;;;;;;2.65;2.45;;;;;;;12.14;100.00;100867.96;1722643;83;21040;-71
2021/05/21 03:09:16;;;;;;;5.97;3.05;;;;;;;12.16;100.00;100871.28;1722726;83;21541;-75
2021/05/21 03:11:45;;;;;;;3.30;3.00;;;;;;;12.17;100.00;100872.11;1722570;83;21543;-70
2021/05/21 03:14:14;;;;;;;5.92;2.90;;;;;;;12.17;100.00;100870.81;1722911;83;20878;-72
2021/05/21 03:16:42;;;;;;;3.30;3.00;;;;;;;12.20;100.00;100879.24;1722786;83;20998;-72
2021/05/21 03:19:11;;;;;;;4.78;2.70;;;;;;;12.20;100.00;100877.94;1722546;83;20989;-70
2021/05/21 03:21:38;;;;;;;3.00;2.55;;;;;;;12.23;100.00;100880.80;1722755;83;21106;-72
2021/05/21 03:24:08;;;;;;;3.00;2.72;;;;;;;12.25;100.00;100876.80;1722703;83;20981;-71
2021/05/21 03:26:35;;;;;;;3.12;2.77;;;;;;;12.25;100.00;100873.73;1722928;83;21654;-71
2021/05/21 03:29:03;;;;;;;3.20;2.75;;;;;;;12.26;100.00;100877.98;1722927;83;20930;-70
2021/05/21 03:31:30;;;;;;;4.55;2.90;;;;;;;12.26;100.00;100883.64;1723098;83;20897;-71
2021/05/21 03:33:58;;;;;;;3.37;3.08;;;;;;;12.27;100.00;100880.12;1722918;83;21104;-70
2021/05/21 03:36:27;;;;;;;4.47;3.15;;;;;;;12.29;100.00;100886.88;1722731;83;21014;-70
2021/05/21 03:38:54;;;;;;;4.08;2.92;;;;;;;12.29;100.00;100886.88;1722806;83;21013;-72
2021/05/21 03:41:21;;;;;;;3.52;3.22;;;;;;;12.31;100.00;100885.02;1722977;83;21089;-80
2021/05/21 03:43:48;;;;;;;3.55;3.20;;;;;;;12.34;100.00;100884.80;1722853;83;21033;-71
2021/05/21 03:46:15;;;;;;;5.12;3.65;;;;;;;12.37;100.00;100893.69;1722686;83;21107;-71
2021/05/21 03:48:46;;;;;;;3.83;3.02;;;;;;;12.40;100.00;100894.78;1722833;83;21061;-70
2021/05/21 03:51:16;;;;;;;3.40;3.08;;;;;;;12.43;100.00;100907.58;1722900;83;20998;-72
2021/05/21 03:53:43;;;;;;;6.35;3.58;;;;;;;12.44;100.00;100913.16;1723599;83;20906;-72
2021/05/21 03:56:11;;;;;;;6.55;3.58;;;;;;;12.46;100.00;100916.47;1723255;83;20957;-75
2021/05/21 03:58:39;;;;;;;4.17;2.87;;;;;;;12.47;100.00;100922.52;1695289;83;21140;-71
2021/05/21 04:01:06;;;;;;;5.85;2.80;;;;;;;12.46;100.00;100916.47;1723091;83;21630;-73
2021/05/21 04:03:34;;;;;;;4.33;2.98;;;;;;;12.49;100.00;100924.06;1722836;83;21013;-71
2021/05/21 04:06:01;;;;;;;4.45;2.90;;;;;;;12.52;100.00;100929.05;1694472;83;21585;-74
2021/05/21 04:08:29;;;;;;;5.45;3.42;;;;;;;12.54;100.00;100924.56;1723093;83;21543;-70
2021/05/21 04:10:57;;;;;;;4.58;2.77;;;;;;;12.56;100.00;100920.56;1722924;83;21064;-74
2021/05/21 04:13:24;;;;;;;2.35;2.12;;;;;;;12.61;100.00;100927.11;1722640;83;20957;-70
2021/05/21 04:15:51;;;;;;;3.30;2.50;;;;;;;12.67;100.00;100932.34;1722863;83;20898;-74
2021/05/21 04:18:18;;;;;;;3.55;2.33;;;;;;;12.70;100.00;100930.83;1722808;83;21626;-73
2021/05/21 04:20:46;;;;;;;3.45;2.90;;;;;;;12.75;100.00;100932.66;1725581;83;21077;-72
2021/05/21 04:23:13;;;;;;;3.80;2.52;;;;;;;12.81;100.00;100940.03;1728187;83;21043;-70
2021/05/21 04:25:41;;;;;;;3.72;2.70;;;;;;;12.86;100.00;100939.22;1728256;83;20970;-69
2021/05/21 04:28:10;;;;;;;4.75;2.67;;;;;;;12.89;100.00;100934.29;1728301;83;21546;-77
2021/05/21 04:30:38;;;;;;;4.90;2.60;;;;;;;12.92;100.00;100937.51;1728180;82;21025;-68
2021/05/21 04:33:07;;;;;;;6.65;3.05;;;;;;;12.94;100.00;100944.73;1728166;83;21613;-70
2021/05/21 04:35:34;;;;;;;4.17;2.87;;;;;;;13.00;100.00;100949.50;1728382;83;21073;-76
2021/05/21 04:38:03;;;;;;;3.17;2.58;;;;;;;13.05;100.00;100949.19;1728104;83;21476;-71
2021/05/21 04:40:31;;;;;;;4.60;3.02;;;;;;;13.10;100.00;100951.84;1727885;83;20973;-78
2021/05/21 04:42:58;;;;;;;2.47;2.10;;;;;;;13.17;100.00;100949.17;1728341;83;20981;-78
2021/05/21 04:45:25;;;;;;;5.83;2.42;;;;;;;13.20;100.00;100940.29;1728356;83;20969;-73
2021/05/21 04:47:52;;;;;;;3.02;2.40;;;;;;;13.18;100.00;100942.99;1728228;83;21101;-73
2021/05/21 04:50:20;;;;;;;3.22;2.40;;;;;;;13.19;100.00;100949.04;1727891;83;21020;-74
2021/05/21 04:52:49;;;;;;;3.15;2.62;;;;;;;13.18;100.00;100953.88;1727997;83;21005;-78
2021/05/21 04:55:16;;;;;;;2.65;2.30;;;;;;;13.17;100.00;100950.94;1728206;83;21008;-72
2021/05/21 04:57:49;;;;;;;2.58;2.30;;;;;;;13.21;100.00;100958.87;1728227;83;21029;-74
2021/05/21 05:00:17;;;;;;;4.65;2.80;;;;;;;13.24;100.00;100956.08;1728028;83;21085;-73
2021/05/21 05:02:44;;;;;;;4.75;2.62;;;;;;;13.32;100.00;100963.32;1728282;83;20917;-75
2021/05/21 05:05:11;;;;;;;5.00;2.45;;;;;;;13.35;100.00;100967.84;1728168;83;20910;-78
2021/05/21 05:07:39;;;;;;;3.30;2.17;;;;;;;13.37;100.00;100968.55;1728338;83;21068;-73
2021/05/21 05:10:07;;;;;;;3.15;2.45;;;;;;;13.40;100.00;100967.02;1727982;83;21037;-71
2021/05/21 05:12:34;;;;;;;4.97;2.67;;;;;;;13.40;100.00;100969.63;1728203;83;21045;-73
2021/05/21 05:15:01;;;;;;;2.80;2.10;;;;;;;13.41;100.00;100971.30;1727977;83;20993;-75
2021/05/21 05:17:28;;;;;;;2.90;2.58;;;;;;;13.48;100.00;100975.59;1728256;83;20997;-79
2021/05/21 05:19:55;;;;;;;5.87;2.52;;;;;;;13.56;100.00;100985.82;1728110;83;21025;-73
2021/05/21 05:22:23;;;;;;;3.87;2.40;;;;;;;13.60;100.00;100983.36;1728205;83;20947;-75
2021/05/21 05:24:50;;;;;;;4.35;2.30;;;;;;;13.67;100.00;100989.79;1728314;83;21590;-71
2021/05/21 05:27:17;;;;;;;5.33;2.20;;;;;;;13.76;100.00;100990.88;1727968;83;20993;-75
2021/05/21 05:29:47;;;;;;;2.65;1.72;;;;;;;13.88;100.00;100996.98;1728516;83;20930;-70
2021/05/21 05:32:15;;;;;;;3.98;2.65;;;;;;;14.00;100.00;101004.73;1728185;83;21072;-69
2021/05/21 05:34:42;;;;;;;5.10;2.55;;;;;;;14.14;100.00;101007.59;1728219;83;20921;-71
2021/05/21 05:37:09;;;;;;;4.78;2.58;;;;;;;14.24;100.00;101015.92;1728045;83;21071;-71
2021/05/21 05:39:36;;;;;;;5.60;3.30;;;;;;;14.39;100.00;101013.95;1728128;83;21106;-74
2021/05/21 05:42:04;;;;;;;2.55;2.17;;;;;;;14.48;98.37;101018.50;1728048;83;21499;-72
2021/05/21 05:44:32;;;;;;;2.27;1.95;;;;;;;14.53;97.13;101022.04;1728183;83;21117;-75
2021/05/21 05:47:00;;;;;;;2.47;2.27;;;;;;;14.54;96.05;101025.86;1728166;83;20917;-72
2021/05/21 05:49:29;;;;;;;4.42;2.45;;;;;;;14.53;95.99;101022.04;1728121;83;21856;-71
2021/05/21 05:51:56;;;;;;;4.78;2.20;;;;;;;14.55;95.79;101022.77;1728236;83;21010;-82
2021/05/21 05:54:23;;;;;;;3.25;2.80;;;;;;;14.55;95.54;101020.97;1727939;83;20922;-74
2021/05/21 05:56:51;;;;;;;4.65;2.30;;;;;;;14.59;96.04;101015.03;1728058;83;20989;-72
2021/05/21 05:59:21;;;;;;;4.35;2.65;;;;;;;14.69;96.39;101019.44;1739238;81;20986;-74
2021/05/21 06:01:49;;;;;;;3.67;2.40;;;;;;;14.72;95.16;101024.89;1755626;81;21112;-72
2021/05/21 06:04:17;;;;;;;5.45;2.17;;;;;;;14.69;95.26;101023.83;1757205;81;21008;-73
2021/05/21 06:06:44;;;;;;;2.40;2.20;;;;;;;14.64;94.98;101024.20;1761778;81;20922;-69
2021/05/21 06:09:11;;;;;;;4.33;2.50;;;;;;;14.59;94.88;101017.65;1761945;81;21009;-76
2021/05/21 06:11:40;;;;;;;4.20;2.75;;;;;;;14.60;95.37;101027.99;1762346;81;20924;-71
2021/05/21 06:14:08;;;;;;;5.97;2.50;;;;;;;14.68;95.45;101029.99;1761443;81;21585;-74
2021/05/21 06:16:35;;;;;;;3.27;2.45;;;;;;;14.76;95.72;101031.55;1762350;81;20982;-72
2021/05/21 06:19:03;;;;;;;5.92;2.08;;;;;;;14.82;94.67;101032.38;1734571;81;21008;-73
2021/05/21 06:21:30;;;;;;;4.25;2.20;;;;;;;14.87;93.36;101031.53;1708206;81;20945;-73
2021/05/21 06:23:57;;;;;;;3.35;1.80;;;;;;;14.95;92.43;101038.79;1699381;84;21008;-75
2021/05/21 06:28:53;;;;;;;3.83;1.90;;;;;;;15.06;91.36;101046.64;1700755;84;20912;-71
2021/05/21 06:31:21;;;;;;;3.85;2.08;;;;;;;15.06;90.56;101048.75;1698860;84;21073;-72
2021/05/21 06:33:48;;;;;;;2.87;1.98;;;;;;;15.09;91.01;101051.13;1700044;83;21027;-73
2021/05/21 06:36:15;;;;;;;4.33;1.80;;;;;;;15.17;89.85;101044.83;1699503;84;20929;-74
2021/05/21 06:38:43;;;;;;;2.42;2.10;;;;;;;15.21;89.71;101043.64;1699808;83;21273;-77
2021/05/21 06:41:11;;;;;;;3.67;1.95;;;;;;;15.28;89.36;101042.69;1708192;81;21052;-74
2021/05/21 06:43:40;;;;;;;1.90;1.70;;;;;;;15.40;89.40;101034.33;1710941;83;21668;-75
2021/05/21 06:46:14;;;;;;;2.55;2.00;;;;;;;15.53;88.75;101039.80;1724436;82;20977;-72
2021/05/21 06:48:46;;;;;;;4.25;1.57;;;;;;;15.68;88.44;101032.48;1741019;81;21040;-80
2021/05/21 06:51:15;;;;;;;3.08;2.22;;;;;;;15.81;86.62;101032.67;1731541;82;21110;-72
2021/05/21 06:53:56;;;;;;;2.58;1.30;;;;;;;15.88;85.66;101033.00;1652727;83;20989;-76
2021/05/21 06:56:24;;;;;;;3.42;1.70;;;;;;;15.98;85.27;101039.62;1732346;81;20997;-77
2021/05/21 06:58:55;;;;;;;5.12;1.65;;;;;;;16.10;84.91;101041.21;1723907;83;21021;-75
2021/05/21 07:01:27;;;;;;;7.50;1.80;;;;;;;16.18;84.06;101036.99;1714269;82;21062;-74
2021/05/21 07:03:57;;;;;;;3.22;1.90;;;;;;;16.19;83.69;101036.05;1720012;82;21124;-74
2021/05/21 07:06:25;;;;;;;1.77;1.50;;;;;;;16.17;83.25;101041.06;1724058;83;20992;-74
2021/05/21 07:08:55;;;;;;;2.47;1.82;;;;;;;16.12;82.43;101039.28;1713592;82;21013;-73
2021/05/21 07:11:25;;;;;;;7.85;2.52;;;;;;;16.07;81.91;101044.09;1680386;85;21060;-77
2021/05/21 07:13:52;;;;;;;2.05;1.70;;;;;;;15.97;82.29;101047.94;1690042;83;21000;-73
2021/05/21 07:16:20;;;;;;;1.72;1.40;;;;;;;15.88;80.69;101046.92;1722454;82;21124;-72
2021/05/21 07:18:50;;;;;;;5.62;1.77;;;;;;;15.91;80.83;101048.92;1723461;82;20943;-75
2021/05/21 07:21:17;;;;;;;1.72;1.27;;;;;;;15.96;82.07;101044.96;1715124;82;21002;-75
2021/05/21 07:23:44;;;;;;;1.72;1.60;;;;;;;16.06;82.60;101043.25;1718274;82;21636;-76
2021/05/21 07:26:12;;;;;;;2.35;1.82;;;;;;;16.22;81.77;101052.80;1726859;82;21105;-72
2021/05/21 07:28:41;;;;;;;2.15;1.45;;;;;;;16.37;81.90;101055.92;1732269;82;21618;-77
2021/05/21 07:31:09;;;;;;;2.12;1.55;;;;;;;16.54;82.14;101053.20;1731604;82;20931;-74
2021/05/21 07:33:37;;;;;;;1.30;1.20;;;;;;;16.59;81.12;101046.63;1725500;82;21075;-74
2021/05/21 07:36:06;;;;;;;1.40;1.30;;;;;;;16.64;80.70;101047.56;1730958;82;20984;-73
2021/05/21 07:38:35;;;;;;;3.37;1.60;;;;;;;16.64;80.58;101058.88;1733327;82;20997;-81
2021/05/21 07:41:03;;;;;;;1.57;1.47;;;;;;;16.56;80.25;101064.43;1723477;82;21261;-81
2021/05/21 07:43:30;;;;;;;1.25;1.15;;;;;;;16.60;80.40;101057.95;1703272;84;21109;-74
2021/05/21 07:45:57;;;;;;;4.72;1.77;;;;;;;16.72;79.29;101053.00;1702872;84;21339;-76
2021/05/21 07:48:26;;;;;;;1.40;1.30;;;;;;;16.76;78.81;101054.37;1702737;84;21049;-75
2021/05/21 07:50:54;;;;;;;5.45;1.30;;;;;;;16.69;77.65;101053.23;1723039;82;21038;-80
2021/05/21 07:53:22;;;;;;;2.02;1.35;;;;;;;16.43;78.94;101068.53;1651423;82;21751;-79
2021/05/21 07:55:49;;;;;;;3.58;1.50;;;;;;;16.26;81.00;101073.02;1716780;82;21020;-76
2021/05/21 07:58:20;;;;;;;4.10;1.50;;;;;;;15.99;82.79;101073.98;1702976;84;21088;-78
2021/05/21 08:00:49;;;;;;;2.17;1.87;;;;;;;15.61;85.42;101070.08;1703302;84;20934;-74
2021/05/21 08:03:16;;;;;;;1.55;1.30;;;;;;;15.32;88.24;101063.69;1703293;84;21047;-75
2021/05/21 08:05:45;;;;;;;2.47;2.27;;;;;;;15.26;90.01;101064.17;1703244;84;21113;-75
2021/05/21 08:08:13;;;;;;;3.75;2.37;;;;;;;15.30;90.83;101070.36;1703143;84;21654;-74
2021/05/21 08:10:42;;;;;;;5.37;1.45;;;;;;;15.55;91.51;101073.19;1703065;84;20978;-78
2021/05/21 08:13:09;;;;;;;2.30;1.40;;;;;;;15.82;89.13;101073.59;1703065;84;20986;-75
2021/05/21 08:15:36;;;;;;;1.37;1.15;;;;;;;15.99;86.85;101080.52;1703370;84;21017;-76
2021/05/21 08:18:04;;;;;;;1.80;1.30;;;;;;;16.08;85.82;101081.11;1703291;84;21106;-73
2021/05/21 08:20:32;;;;;;;3.12;1.40;;;;;;;16.09;84.90;101077.03;1703307;84;20903;-77
2021/05/21 08:22:59;;;;;;;2.55;1.20;;;;;;;16.11;84.87;101075.61;1695618;84;21077;-76
2021/05/21 08:25:26;;;;;;;1.40;1.30;;;;;;;16.23;85.12;101072.81;1692924;84;21610;-79
2021/05/21 08:27:54;;;;;;;3.05;1.90;;;;;;;16.44;85.00;101076.72;1694356;84;20891;-73
2021/05/21 08:30:24;;;;;;;1.47;1.22;;;;;;;16.69;83.92;101064.55;1694821;84;20991;-75
2021/05/21 08:32:52;;;;;;;2.60;1.20;;;;;;;16.96;82.98;101071.02;1694476;84;20947;-73
2021/05/21 08:35:20;;;;;;;2.00;1.07;;;;;;;17.11;81.21;101068.38;1694707;84;20947;-76
2021/05/21 08:37:48;;;;;;;1.77;1.00;;;;;;;17.18;77.65;101066.88;1694530;84;21050;-79
2021/05/21 08:40:26;;;;;;;1.60;1.20;;;;;;;17.17;77.57;101066.05;1669165;83;21038;-78
2021/05/21 08:42:57;;;;;;;2.12;0.95;;;;;;;17.18;76.68;101077.37;1668875;84;21279;-75
2021/05/21 08:45:25;;;;;;;2.27;0.90;;;;;;;17.28;75.43;101084.32;1694615;84;20947;-74
2021/05/21 08:47:53;;;;;;;3.22;1.05;;;;;;;17.39;74.41;101082.88;1694545;84;20938;-76
2021/05/21 08:50:22;;;;;;;6.92;1.30;;;;;;;17.52;74.48;101085.77;1694539;84;20955;-76
2021/05/21 08:52:50;;;;;;;2.70;1.02;;;;;;;17.53;74.73;101081.67;1694609;84;21094;-78
2021/05/21 08:55:18;;;;;;;2.15;0.70;;;;;;;17.38;73.03;101098.30;1694927;84;21885;-78
2021/05/21 08:57:45;;;;;;;1.57;0.95;;;;;;;17.12;72.55;101097.58;1695344;84;21467;-76
2021/05/21 09:00:16;;;;;;;3.35;1.30;;;;;;;16.90;75.22;101110.39;1695336;84;21085;-76
2021/05/21 09:02:44;;;;;;;3.08;0.90;;;;;;;16.81;77.96;101102.01;1694936;84;38717;-76
2021/05/21 09:05:12;;;;;;;1.25;0.78;;;;;;;17.00;79.32;101102.09;1694794;84;21062;-73
2021/05/21 09:07:40;;;;;;;1.40;1.00;;;;;;;17.15;76.83;101091.59;1694618;84;21644;-70
2021/05/21 09:10:18;;;;;;;2.75;1.20;;;;;;;17.33;77.54;101102.27;1696779;83;20945;-77
2021/05/21 09:12:49;;;;;;;1.85;1.30;;;;;;;17.43;74.68;101088.69;1703989;83;20881;-75
2021/05/21 09:15:20;;;;;;;1.52;1.00;;;;;;;17.38;75.54;101094.84;1722050;83;21007;-77
2021/05/21 09:18:00;;;;;;;5.45;1.00;;;;;;;17.18;75.51;101099.67;1723632;83;21023;-76
2021/05/21 09:20:34;;;;;;;1.07;0.90;;;;;;;17.11;76.20;101102.46;1714586;83;21830;-80
2021/05/21 09:23:07;;;;;;;0.80;0.80;;;;;;;17.02;77.22;101108.50;1704813;83;21037;-75
2021/05/21 09:25:42;;;;;;;6.65;0.78;;;;;;;16.98;78.09;101109.24;1711451;83;20956;-74
2021/05/21 09:28:38;;;;;;;0.93;0.50;;;;;;;17.11;77.67;101117.72;1711142;82;21633;-76
2021/05/21 09:31:13;;;;;;;5.30;0.60;;;;;;;17.37;77.27;101112.37;1740849;82;20911;-70
2021/05/21 09:33:46;;;;;;;1.57;0.40;;;;;;;17.62;75.96;101116.32;1741035;82;21157;-73
2021/05/21 09:36:13;;;;;;;1.82;0.98;;;;;;;17.73;74.83;101121.94;1741175;82;21086;-73
2021/05/21 09:38:51;;;;;;;0.50;0.50;;;;;;;17.81;75.48;101116.83;1741114;82;20943;-70
2021/05/21 09:41:18;;;;;;;1.12;0.90;;;;;;;17.85;74.33;101124.78;1740883;82;21034;-78
2021/05/21 09:43:53;;;;;;;0.70;0.70;;;;;;;17.85;74.02;101128.72;1741177;82;20943;-74
2021/05/21 09:46:20;;;;;;;4.65;1.15;;;;;;;17.82;73.67;101127.20;1741419;82;21108;-76
2021/05/21 09:48:48;;;;;;;0.90;0.75;;;;;;;17.89;73.05;101135.37;1740972;82;21006;-74
2021/05/21 09:51:16;;;;;;;1.20;0.70;;;;;;;17.97;73.52;101135.02;1741188;82;21062;-74
2021/05/21 09:53:46;;;;;;;1.25;0.70;;;;;;;17.98;73.04;101147.20;1740994;82;21477;-78
2021/05/21 09:56:20;;;;;;;1.05;0.78;;;;;;;17.84;73.06;101151.52;1714638;82;21038;-73
2021/05/21 09:58:47;;;;;;;1.55;0.90;;;;;;;17.64;72.76;101156.41;1740645;82;21161;-71
2021/05/21 10:01:23;;;;;;;1.50;0.90;;;;;;;17.51;72.25;101159.72;1726137;82;21066;-77
2021/05/21 10:03:57;;;;;;;1.20;1.10;;;;;;;17.65;72.10;101154.58;1741120;82;21022;-71
2021/05/21 10:06:27;;;;;;;3.42;1.20;;;;;;;18.08;72.55;101153.77;1741162;82;21018;-77
2021/05/21 10:09:02;;;;;;;1.85;0.90;;;;;;;19.03;70.42;101149.37;1741023;82;20959;-71
2021/05/21 10:11:27;;;;;;;1.40;0.82;;;;;;;19.55;66.32;101142.67;1740410;82;21311;-72
2021/05/21 10:13:55;;;;;;;2.45;1.32;;;;;;;19.56;65.36;101140.36;1741106;82;21062;-73
2021/05/21 10:16:22;;;;;;;2.27;1.10;;;;;;;19.36;65.71;101140.95;1741186;82;21663;-75
2021/05/21 10:18:52;;;;;;;2.22;1.20;;;;;;;19.26;64.66;101141.95;1741035;82;21638;-72
2021/05/21 10:21:22;;;;;;;1.70;0.98;;;;;;;19.20;66.12;101147.80;1741178;82;20899;-81
2021/05/21 10:23:54;;;;;;;2.90;1.10;;;;;;;19.08;64.75;101148.45;1724790;82;21145;-74
2021/05/21 10:26:34;;;;;;;2.47;0.98;;;;;;;18.99;64.39;101150.14;1723313;83;21015;-73
2021/05/21 10:29:05;;;;;;;3.98;1.20;;;;;;;19.01;63.29;101153.96;1723361;83;20892;-73
2021/05/21 10:31:33;;;;;;;3.72;1.12;;;;;;;19.00;63.46;101158.87;1723692;83;21019;-72
2021/05/21 10:34:18;;;;;;;4.10;1.77;;;;;;;19.03;64.01;101163.84;1723502;83;21545;-73
2021/05/21 10:37:35;;;;;;;6.10;2.02;;;;;;;19.08;64.19;101160.28;1723677;83;21051;-74
2021/05/21 10:40:27;;;;;;;2.45;1.30;;;;;;;19.14;64.34;101163.68;1723749;83;21007;-72
2021/05/21 10:43:17;;;;;;;3.12;1.12;;;;;;;19.11;61.36;101161.34;1723772;83;20892;-78
2021/05/21 10:46:03;;;;;;;3.33;1.10;;;;;;;18.99;63.39;101165.09;1723644;82;20904;-72
2021/05/21 10:48:33;;;;;;;5.80;1.40;;;;;;;19.08;64.12;101173.95;1721927;83;21062;-73
2021/05/21 10:51:12;;;;;;;3.98;1.20;;;;;;;19.16;62.99;101181.94;1721880;83;21260;-71
2021/05/21 10:53:43;;;;;;;3.10;1.20;;;;;;;19.10;62.73;101175.45;1721928;83;21075;-78
2021/05/21 10:56:11;;;;;;;4.92;1.35;;;;;;;19.16;63.85;101185.89;1723037;83;21573;-71
2021/05/21 10:58:44;;;;;;;1.62;1.27;;;;;;;19.20;62.20;101179.37;1724059;83;21066;-71
2021/05/21 11:01:12;;;;;;;5.15;1.62;;;;;;;19.24;62.54;101189.45;1723199;83;21063;-72
2021/05/21 11:04:09;;;;;;;6.37;1.98;;;;;;;19.25;62.13;101187.17;1723549;83;21527;-70
2021/05/21 11:06:50;;;;;;;2.60;2.30;;;;;;;19.21;62.72;101188.42;1721888;82;20966;-72
2021/05/21 11:09:27;;;;;;;5.15;1.80;;;;;;;18.97;63.08;101196.81;1728306;82;21124;-76
2021/05/21 11:12:08;;;;;;;4.65;1.50;;;;;;;18.88;64.30;101190.27;1699403;82;21229;-75
2021/05/21 11:14:45;;;;;;;4.30;1.25;;;;;;;18.89;65.41;101196.68;1700825;84;21027;-77
2021/05/21 11:17:47;;;;;;;1.95;1.05;;;;;;;19.13;64.24;101189.64;1700792;84;21146;-71
2021/05/21 11:20:14;;;;;;;2.17;1.12;;;;;;;19.38;63.36;101186.84;1706447;84;21691;-70
2021/05/21 11:22:42;;;;;;;2.05;1.25;;;;;;;19.53;63.28;101186.24;1725494;83;21055;-74
2021/05/21 11:25:16;;;;;;;10.72;2.12;;;;;;;19.68;62.99;101177.38;1711645;82;21138;-72
2021/05/21 11:27:45;;;;;;;5.40;1.45;;;;;;;19.84;62.67;101188.10;1705336;84;21091;-73
2021/05/21 11:30:15;;;;;;;1.82;1.10;;;;;;;19.94;60.16;101185.41;1700781;83;21138;-73
2021/05/21 11:32:42;;;;;;;2.50;1.70;;;;;;;19.94;59.19;101180.94;1736719;82;21412;-77
2021/05/21 11:35:11;;;;;;;2.25;1.05;;;;;;;19.97;58.98;101179.33;1732961;82;21088;-78